sensor_id;sensor_type;location;lat;lon;timestamp;P1;durP1;ratioP1;P2;durP2;ratioP2
11533;SDS011;5823;50.588;8.462;2023-02-22T00:01:12;0.45;;;0.45;;
11533;SDS011;5823;50.588;8.462;2023-02-22T00:03:47;1.08;;;0.70;;
11533;SDS011;5823;50.588;8.462;2023-02-22T00:06:15;0.55;;;0.55;;
11533;SDS011;5823;50.588;8.462;2023-02-22T00:08:41;0.57;;;0.57;;
11533;SDS011;5823;50.588;8.462;2023-02-22T00:11:09;0.50;;;0.50;;
11533;SDS011;5823;50.588;8.462;2023-02-22T00:13:36;0.60;;;0.60;;
11533;SDS011;5823;50.588;8.462;2023-02-22T00:16:02;0.50;;;0.50;;
11533;SDS011;5823;50.588;8.462;2023-02-22T00:18:29;0.40;;;0.40;;
11533;SDS011;5823;50.588;8.462;2023-02-22T00:20:55;0.43;;;0.40;;
11533;SDS011;5823;50.588;8.462;2023-02-22T00:23:23;0.40;;;0.40;;
11533;SDS011;5823;50.588;8.462;2023-02-22T00:25:50;0.50;;;0.50;;
11533;SDS011;5823;50.588;8.462;2023-02-22T00:28:18;0.50;;;0.50;;
11533;SDS011;5823;50.588;8.462;2023-02-22T00:30:45;0.50;;;0.50;;
11533;SDS011;5823;50.588;8.462;2023-02-22T00:33:12;0.45;;;0.45;;
11533;SDS011;5823;50.588;8.462;2023-02-22T00:35:39;0.50;;;0.50;;
11533;SDS011;5823;50.588;8.462;2023-02-22T00:38:05;0.40;;;0.40;;
11533;SDS011;5823;50.588;8.462;2023-02-22T00:40:33;0.52;;;0.52;;
11533;SDS011;5823;50.588;8.462;2023-02-22T00:43:01;0.60;;;0.60;;
11533;SDS011;5823;50.588;8.462;2023-02-22T00:45:30;0.80;;;0.80;;
11533;SDS011;5823;50.588;8.462;2023-02-22T00:47:57;0.50;;;0.47;;
11533;SDS011;5823;50.588;8.462;2023-02-22T00:50:24;0.40;;;0.40;;
11533;SDS011;5823;50.588;8.462;2023-02-22T00:52:51;0.30;;;0.30;;
11533;SDS011;5823;50.588;8.462;2023-02-22T00:55:18;0.32;;;0.32;;
11533;SDS011;5823;50.588;8.462;2023-02-22T00:57:44;1.00;;;0.40;;
11533;SDS011;5823;50.588;8.462;2023-02-22T01:00:14;0.40;;;0.40;;
11533;SDS011;5823;50.588;8.462;2023-02-22T01:02:42;0.60;;;0.60;;
11533;SDS011;5823;50.588;8.462;2023-02-22T01:05:10;0.63;;;0.60;;
11533;SDS011;5823;50.588;8.462;2023-02-22T01:07:37;0.57;;;0.57;;
11533;SDS011;5823;50.588;8.462;2023-02-22T01:10:04;0.65;;;0.40;;
11533;SDS011;5823;50.588;8.462;2023-02-22T01:12:30;0.50;;;0.50;;
11533;SDS011;5823;50.588;8.462;2023-02-22T01:14:57;0.50;;;0.50;;
11533;SDS011;5823;50.588;8.462;2023-02-22T01:17:23;0.50;;;0.50;;
11533;SDS011;5823;50.588;8.462;2023-02-22T01:19:51;0.45;;;0.45;;
11533;SDS011;5823;50.588;8.462;2023-02-22T01:22:17;0.43;;;0.40;;
11533;SDS011;5823;50.588;8.462;2023-02-22T01:24:44;0.30;;;0.30;;
11533;SDS011;5823;50.588;8.462;2023-02-22T01:27:10;0.30;;;0.30;;
11533;SDS011;5823;50.588;8.462;2023-02-22T01:29:36;0.30;;;0.30;;
11533;SDS011;5823;50.588;8.462;2023-02-22T01:32:03;0.40;;;0.40;;
11533;SDS011;5823;50.588;8.462;2023-02-22T01:34:30;0.40;;;0.40;;
11533;SDS011;5823;50.588;8.462;2023-02-22T01:36:58;0.45;;;0.40;;
11533;SDS011;5823;50.588;8.462;2023-02-22T01:39:25;0.35;;;0.35;;
11533;SDS011;5823;50.588;8.462;2023-02-22T01:41:51;0.43;;;0.43;;
11533;SDS011;5823;50.588;8.462;2023-02-22T01:44:19;0.50;;;0.50;;
11533;SDS011;5823;50.588;8.462;2023-02-22T01:46:45;0.30;;;0.30;;
11533;SDS011;5823;50.588;8.462;2023-02-22T01:49:12;0.20;;;0.20;;
11533;SDS011;5823;50.588;8.462;2023-02-22T01:51:41;0.35;;;0.35;;
11533;SDS011;5823;50.588;8.462;2023-02-22T01:54:10;0.40;;;0.40;;
11533;SDS011;5823;50.588;8.462;2023-02-22T01:56:40;0.40;;;0.40;;
11533;SDS011;5823;50.588;8.462;2023-02-22T01:59:10;0.50;;;0.50;;
11533;SDS011;5823;50.588;8.462;2023-02-22T02:01:37;0.40;;;0.40;;
11533;SDS011;5823;50.588;8.462;2023-02-22T02:04:08;0.60;;;0.60;;
11533;SDS011;5823;50.588;8.462;2023-02-22T02:06:35;0.40;;;0.40;;
11533;SDS011;5823;50.588;8.462;2023-02-22T02:09:03;0.30;;;0.30;;
11533;SDS011;5823;50.588;8.462;2023-02-22T02:11:31;0.32;;;0.30;;
11533;SDS011;5823;50.588;8.462;2023-02-22T02:13:58;0.60;;;0.60;;
11533;SDS011;5823;50.588;8.462;2023-02-22T02:16:25;0.45;;;0.45;;
11533;SDS011;5823;50.588;8.462;2023-02-22T02:18:52;0.60;;;0.60;;
11533;SDS011;5823;50.588;8.462;2023-02-22T02:21:38;0.43;;;0.43;;
11533;SDS011;5823;50.588;8.462;2023-02-22T02:24:11;0.32;;;0.32;;
11533;SDS011;5823;50.588;8.462;2023-02-22T02:26:50;0.45;;;0.40;;
11533;SDS011;5823;50.588;8.462;2023-02-22T02:29:42;0.68;;;0.68;;
11533;SDS011;5823;50.588;8.462;2023-02-22T02:32:19;0.28;;;0.28;;
11533;SDS011;5823;50.588;8.462;2023-02-22T02:34:48;0.77;;;0.77;;
11533;SDS011;5823;50.588;8.462;2023-02-22T02:37:18;0.45;;;0.45;;
11533;SDS011;5823;50.588;8.462;2023-02-22T02:39:48;0.40;;;0.40;;
11533;SDS011;5823;50.588;8.462;2023-02-22T02:42:16;0.45;;;0.45;;
11533;SDS011;5823;50.588;8.462;2023-02-22T02:44:46;0.52;;;0.32;;
11533;SDS011;5823;50.588;8.462;2023-02-22T02:47:16;0.60;;;0.60;;
11533;SDS011;5823;50.588;8.462;2023-02-22T02:49:47;0.52;;;0.52;;
11533;SDS011;5823;50.588;8.462;2023-02-22T02:52:17;0.32;;;0.30;;
11533;SDS011;5823;50.588;8.462;2023-02-22T02:54:44;0.50;;;0.50;;
11533;SDS011;5823;50.588;8.462;2023-02-22T02:57:11;0.88;;;0.40;;
11533;SDS011;5823;50.588;8.462;2023-02-22T02:59:37;0.30;;;0.30;;
11533;SDS011;5823;50.588;8.462;2023-02-22T03:02:14;0.55;;;0.55;;
11533;SDS011;5823;50.588;8.462;2023-02-22T03:04:47;0.40;;;0.40;;
11533;SDS011;5823;50.588;8.462;2023-02-22T03:07:30;0.47;;;0.47;;
11533;SDS011;5823;50.588;8.462;2023-02-22T03:10:04;0.30;;;0.30;;
11533;SDS011;5823;50.588;8.462;2023-02-22T03:12:37;0.50;;;0.50;;
11533;SDS011;5823;50.588;8.462;2023-02-22T03:15:12;0.30;;;0.30;;
11533;SDS011;5823;50.588;8.462;2023-02-22T03:17:42;0.40;;;0.40;;
11533;SDS011;5823;50.588;8.462;2023-02-22T03:20:11;0.45;;;0.45;;
11533;SDS011;5823;50.588;8.462;2023-02-22T03:22:39;0.82;;;0.70;;
11533;SDS011;5823;50.588;8.462;2023-02-22T03:25:13;0.40;;;0.40;;
11533;SDS011;5823;50.588;8.462;2023-02-22T03:27:41;0.40;;;0.40;;
11533;SDS011;5823;50.588;8.462;2023-02-22T03:30:09;0.40;;;0.35;;
11533;SDS011;5823;50.588;8.462;2023-02-22T03:32:37;0.30;;;0.30;;
11533;SDS011;5823;50.588;8.462;2023-02-22T03:35:05;0.20;;;0.20;;
11533;SDS011;5823;50.588;8.462;2023-02-22T03:37:35;0.40;;;0.40;;
11533;SDS011;5823;50.588;8.462;2023-02-22T03:40:03;0.55;;;0.45;;
11533;SDS011;5823;50.588;8.462;2023-02-22T03:42:38;0.50;;;0.50;;
11533;SDS011;5823;50.588;8.462;2023-02-22T03:45:05;0.25;;;0.25;;
11533;SDS011;5823;50.588;8.462;2023-02-22T03:47:34;0.52;;;0.45;;
11533;SDS011;5823;50.588;8.462;2023-02-22T03:50:04;0.40;;;0.40;;
11533;SDS011;5823;50.588;8.462;2023-02-22T03:52:35;0.15;;;0.15;;
11533;SDS011;5823;50.588;8.462;2023-02-22T03:55:02;0.40;;;0.40;;
11533;SDS011;5823;50.588;8.462;2023-02-22T03:57:29;0.35;;;0.35;;
11533;SDS011;5823;50.588;8.462;2023-02-22T03:59:57;0.30;;;0.30;;
11533;SDS011;5823;50.588;8.462;2023-02-22T04:02:23;0.35;;;0.35;;
11533;SDS011;5823;50.588;8.462;2023-02-22T04:04:49;0.40;;;0.40;;
11533;SDS011;5823;50.588;8.462;2023-02-22T04:07:15;0.20;;;0.20;;
11533;SDS011;5823;50.588;8.462;2023-02-22T04:09:44;0.30;;;0.30;;
11533;SDS011;5823;50.588;8.462;2023-02-22T04:12:10;0.35;;;0.35;;
11533;SDS011;5823;50.588;8.462;2023-02-22T04:14:37;0.40;;;0.40;;
11533;SDS011;5823;50.588;8.462;2023-02-22T04:17:03;0.50;;;0.50;;
11533;SDS011;5823;50.588;8.462;2023-02-22T04:19:29;0.30;;;0.30;;
11533;SDS011;5823;50.588;8.462;2023-02-22T04:21:55;0.32;;;0.32;;
11533;SDS011;5823;50.588;8.462;2023-02-22T04:24:22;0.20;;;0.20;;
11533;SDS011;5823;50.588;8.462;2023-02-22T04:26:49;0.38;;;0.38;;
11533;SDS011;5823;50.588;8.462;2023-02-22T04:29:15;0.55;;;0.47;;
11533;SDS011;5823;50.588;8.462;2023-02-22T04:31:42;0.30;;;0.30;;
11533;SDS011;5823;50.588;8.462;2023-02-22T04:34:08;0.40;;;0.40;;
11533;SDS011;5823;50.588;8.462;2023-02-22T04:36:34;0.40;;;0.40;;
11533;SDS011;5823;50.588;8.462;2023-02-22T04:39:01;0.30;;;0.30;;
11533;SDS011;5823;50.588;8.462;2023-02-22T04:41:27;0.50;;;0.50;;
11533;SDS011;5823;50.588;8.462;2023-02-22T04:43:56;0.40;;;0.40;;
11533;SDS011;5823;50.588;8.462;2023-02-22T04:46:23;0.20;;;0.20;;
11533;SDS011;5823;50.588;8.462;2023-02-22T04:48:49;0.50;;;0.50;;
11533;SDS011;5823;50.588;8.462;2023-02-22T04:51:15;0.20;;;0.20;;
11533;SDS011;5823;50.588;8.462;2023-02-22T04:53:42;0.40;;;0.40;;
11533;SDS011;5823;50.588;8.462;2023-02-22T04:56:08;0.40;;;0.30;;
11533;SDS011;5823;50.588;8.462;2023-02-22T04:58:34;0.35;;;0.35;;
11533;SDS011;5823;50.588;8.462;2023-02-22T05:01:02;0.50;;;0.30;;
11533;SDS011;5823;50.588;8.462;2023-02-22T05:03:28;0.20;;;0.20;;
11533;SDS011;5823;50.588;8.462;2023-02-22T05:05:54;0.35;;;0.35;;
11533;SDS011;5823;50.588;8.462;2023-02-22T05:08:21;0.20;;;0.20;;
11533;SDS011;5823;50.588;8.462;2023-02-22T05:10:47;0.32;;;0.32;;
11533;SDS011;5823;50.588;8.462;2023-02-22T05:13:13;0.40;;;0.40;;
11533;SDS011;5823;50.588;8.462;2023-02-22T05:15:39;0.45;;;0.35;;
11533;SDS011;5823;50.588;8.462;2023-02-22T05:18:07;0.40;;;0.40;;
11533;SDS011;5823;50.588;8.462;2023-02-22T05:20:33;0.40;;;0.30;;
11533;SDS011;5823;50.588;8.462;2023-02-22T05:23:00;0.38;;;0.38;;
11533;SDS011;5823;50.588;8.462;2023-02-22T05:25:26;0.50;;;0.50;;
11533;SDS011;5823;50.588;8.462;2023-02-22T05:27:53;0.65;;;0.45;;
11533;SDS011;5823;50.588;8.462;2023-02-22T05:30:20;0.45;;;0.40;;
11533;SDS011;5823;50.588;8.462;2023-02-22T05:32:48;0.40;;;0.40;;
11533;SDS011;5823;50.588;8.462;2023-02-22T05:35:15;0.90;;;0.70;;
11533;SDS011;5823;50.588;8.462;2023-02-22T05:37:42;0.30;;;0.30;;
11533;SDS011;5823;50.588;8.462;2023-02-22T05:40:08;0.35;;;0.35;;
11533;SDS011;5823;50.588;8.462;2023-02-22T05:42:34;0.40;;;0.40;;
11533;SDS011;5823;50.588;8.462;2023-02-22T05:45:01;0.40;;;0.40;;
11533;SDS011;5823;50.588;8.462;2023-02-22T05:47:27;0.60;;;0.40;;
11533;SDS011;5823;50.588;8.462;2023-02-22T05:49:54;0.45;;;0.32;;
11533;SDS011;5823;50.588;8.462;2023-02-22T05:52:21;0.50;;;0.50;;
11533;SDS011;5823;50.588;8.462;2023-02-22T05:54:48;0.32;;;0.30;;
11533;SDS011;5823;50.588;8.462;2023-02-22T05:57:16;0.65;;;0.65;;
11533;SDS011;5823;50.588;8.462;2023-02-22T05:59:42;0.40;;;0.35;;
11533;SDS011;5823;50.588;8.462;2023-02-22T06:02:08;0.40;;;0.40;;
11533;SDS011;5823;50.588;8.462;2023-02-22T06:04:34;0.60;;;0.50;;
11533;SDS011;5823;50.588;8.462;2023-02-22T06:07:00;0.25;;;0.25;;
11533;SDS011;5823;50.588;8.462;2023-02-22T06:09:28;1.05;;;0.60;;
11533;SDS011;5823;50.588;8.462;2023-02-22T06:11:54;0.55;;;0.45;;
11533;SDS011;5823;50.588;8.462;2023-02-22T06:14:20;0.40;;;0.40;;
11533;SDS011;5823;50.588;8.462;2023-02-22T06:16:50;1.02;;;0.80;;
11533;SDS011;5823;50.588;8.462;2023-02-22T06:19:17;0.30;;;0.30;;
11533;SDS011;5823;50.588;8.462;2023-02-22T06:21:47;0.40;;;0.40;;
11533;SDS011;5823;50.588;8.462;2023-02-22T06:24:13;0.90;;;0.63;;
11533;SDS011;5823;50.588;8.462;2023-02-22T06:26:41;0.75;;;0.63;;
11533;SDS011;5823;50.588;8.462;2023-02-22T06:29:07;0.63;;;0.60;;
11533;SDS011;5823;50.588;8.462;2023-02-22T06:31:33;0.70;;;0.57;;
11533;SDS011;5823;50.588;8.462;2023-02-22T06:34:00;0.70;;;0.70;;
11533;SDS011;5823;50.588;8.462;2023-02-22T06:36:26;0.88;;;0.60;;
11533;SDS011;5823;50.588;8.462;2023-02-22T06:38:52;0.63;;;0.52;;
11533;SDS011;5823;50.588;8.462;2023-02-22T06:41:20;0.65;;;0.63;;
11533;SDS011;5823;50.588;8.462;2023-02-22T06:43:48;0.45;;;0.45;;
11533;SDS011;5823;50.588;8.462;2023-02-22T06:46:14;0.60;;;0.60;;
11533;SDS011;5823;50.588;8.462;2023-02-22T06:48:40;1.17;;;0.63;;
11533;SDS011;5823;50.588;8.462;2023-02-22T06:51:07;0.60;;;0.60;;
11533;SDS011;5823;50.588;8.462;2023-02-22T06:53:33;0.60;;;0.60;;
11533;SDS011;5823;50.588;8.462;2023-02-22T06:56:00;0.50;;;0.50;;
11533;SDS011;5823;50.588;8.462;2023-02-22T06:58:26;0.80;;;0.65;;
11533;SDS011;5823;50.588;8.462;2023-02-22T07:00:54;0.40;;;0.40;;
11533;SDS011;5823;50.588;8.462;2023-02-22T07:03:20;0.45;;;0.45;;
11533;SDS011;5823;50.588;8.462;2023-02-22T07:05:46;0.50;;;0.50;;
11533;SDS011;5823;50.588;8.462;2023-02-22T07:08:13;0.90;;;0.50;;
11533;SDS011;5823;50.588;8.462;2023-02-22T07:10:39;0.70;;;0.70;;
11533;SDS011;5823;50.588;8.462;2023-02-22T07:13:05;0.50;;;0.50;;
11533;SDS011;5823;50.588;8.462;2023-02-22T07:15:33;0.88;;;0.60;;
11533;SDS011;5823;50.588;8.462;2023-02-22T07:18:01;0.65;;;0.60;;
11533;SDS011;5823;50.588;8.462;2023-02-22T07:20:28;0.50;;;0.50;;
11533;SDS011;5823;50.588;8.462;2023-02-22T07:22:54;0.65;;;0.57;;
11533;SDS011;5823;50.588;8.462;2023-02-22T07:25:21;0.60;;;0.60;;
11533;SDS011;5823;50.588;8.462;2023-02-22T07:27:48;0.22;;;0.22;;
11533;SDS011;5823;50.588;8.462;2023-02-22T07:30:17;0.30;;;0.30;;
11533;SDS011;5823;50.588;8.462;2023-02-22T07:32:43;0.30;;;0.30;;
11533;SDS011;5823;50.588;8.462;2023-02-22T07:35:14;0.60;;;0.60;;
11533;SDS011;5823;50.588;8.462;2023-02-22T07:37:40;0.90;;;0.80;;
11533;SDS011;5823;50.588;8.462;2023-02-22T07:40:07;0.65;;;0.65;;
11533;SDS011;5823;50.588;8.462;2023-02-22T07:42:35;0.40;;;0.38;;
11533;SDS011;5823;50.588;8.462;2023-02-22T07:45:14;0.70;;;0.55;;
11533;SDS011;5823;50.588;8.462;2023-02-22T07:47:41;0.60;;;0.60;;
11533;SDS011;5823;50.588;8.462;2023-02-22T07:50:07;0.93;;;0.70;;
11533;SDS011;5823;50.588;8.462;2023-02-22T07:52:34;0.47;;;0.45;;
11533;SDS011;5823;50.588;8.462;2023-02-22T07:55:01;0.63;;;0.47;;
11533;SDS011;5823;50.588;8.462;2023-02-22T07:57:27;0.57;;;0.50;;
11533;SDS011;5823;50.588;8.462;2023-02-22T07:59:53;0.57;;;0.57;;
11533;SDS011;5823;50.588;8.462;2023-02-22T08:02:20;0.45;;;0.45;;
11533;SDS011;5823;50.588;8.462;2023-02-22T08:04:46;0.70;;;0.65;;
11533;SDS011;5823;50.588;8.462;2023-02-22T08:07:12;0.60;;;0.40;;
11533;SDS011;5823;50.588;8.462;2023-02-22T08:09:40;0.60;;;0.60;;
11533;SDS011;5823;50.588;8.462;2023-02-22T08:12:06;0.77;;;0.60;;
11533;SDS011;5823;50.588;8.462;2023-02-22T08:14:32;0.75;;;0.65;;
11533;SDS011;5823;50.588;8.462;2023-02-22T08:16:59;0.50;;;0.45;;
11533;SDS011;5823;50.588;8.462;2023-02-22T08:19:25;0.52;;;0.52;;
11533;SDS011;5823;50.588;8.462;2023-02-22T08:21:51;0.63;;;0.63;;
11533;SDS011;5823;50.588;8.462;2023-02-22T08:24:17;0.63;;;0.47;;
11533;SDS011;5823;50.588;8.462;2023-02-22T08:26:45;1.00;;;0.60;;
11533;SDS011;5823;50.588;8.462;2023-02-22T08:29:11;0.30;;;0.30;;
11533;SDS011;5823;50.588;8.462;2023-02-22T08:31:38;0.50;;;0.50;;
11533;SDS011;5823;50.588;8.462;2023-02-22T08:34:05;0.70;;;0.70;;
11533;SDS011;5823;50.588;8.462;2023-02-22T08:36:31;0.55;;;0.50;;
11533;SDS011;5823;50.588;8.462;2023-02-22T08:38:58;0.68;;;0.57;;
11533;SDS011;5823;50.588;8.462;2023-02-22T08:41:24;0.40;;;0.40;;
11533;SDS011;5823;50.588;8.462;2023-02-22T08:43:52;0.25;;;0.25;;
11533;SDS011;5823;50.588;8.462;2023-02-22T08:46:18;0.57;;;0.55;;
11533;SDS011;5823;50.588;8.462;2023-02-22T08:48:48;0.25;;;0.20;;
11533;SDS011;5823;50.588;8.462;2023-02-22T08:51:14;0.30;;;0.30;;
11533;SDS011;5823;50.588;8.462;2023-02-22T08:53:40;0.40;;;0.28;;
11533;SDS011;5823;50.588;8.462;2023-02-22T08:56:07;0.60;;;0.60;;
11533;SDS011;5823;50.588;8.462;2023-02-22T08:58:33;0.80;;;0.52;;
11533;SDS011;5823;50.588;8.462;2023-02-22T09:01:00;0.50;;;0.50;;
11533;SDS011;5823;50.588;8.462;2023-02-22T09:03:27;0.55;;;0.52;;
11533;SDS011;5823;50.588;8.462;2023-02-22T09:05:53;0.80;;;0.63;;
11533;SDS011;5823;50.588;8.462;2023-02-22T09:08:20;0.73;;;0.50;;
11533;SDS011;5823;50.588;8.462;2023-02-22T09:10:46;0.80;;;0.60;;
11533;SDS011;5823;50.588;8.462;2023-02-22T09:13:14;0.60;;;0.60;;
11533;SDS011;5823;50.588;8.462;2023-02-22T09:15:41;1.00;;;0.90;;
11533;SDS011;5823;50.588;8.462;2023-02-22T09:18:10;1.48;;;0.68;;
11533;SDS011;5823;50.588;8.462;2023-02-22T09:20:38;0.90;;;0.80;;
11533;SDS011;5823;50.588;8.462;2023-02-22T09:23:06;0.90;;;0.80;;
11533;SDS011;5823;50.588;8.462;2023-02-22T09:25:33;1.50;;;0.85;;
11533;SDS011;5823;50.588;8.462;2023-02-22T09:28:00;0.88;;;0.73;;
11533;SDS011;5823;50.588;8.462;2023-02-22T09:30:27;0.75;;;0.60;;
11533;SDS011;5823;50.588;8.462;2023-02-22T09:32:57;0.68;;;0.68;;
11533;SDS011;5823;50.588;8.462;2023-02-22T09:35:25;0.50;;;0.50;;
11533;SDS011;5823;50.588;8.462;2023-02-22T09:37:52;0.95;;;0.68;;
11533;SDS011;5823;50.588;8.462;2023-02-22T09:40:18;0.73;;;0.70;;
11533;SDS011;5823;50.588;8.462;2023-02-22T09:42:52;0.60;;;0.60;;
11533;SDS011;5823;50.588;8.462;2023-02-22T09:45:22;0.68;;;0.68;;
11533;SDS011;5823;50.588;8.462;2023-02-22T09:47:49;0.75;;;0.75;;
11533;SDS011;5823;50.588;8.462;2023-02-22T09:50:20;0.75;;;0.70;;
11533;SDS011;5823;50.588;8.462;2023-02-22T09:52:51;0.43;;;0.40;;
11533;SDS011;5823;50.588;8.462;2023-02-22T09:55:21;0.60;;;0.50;;
11533;SDS011;5823;50.588;8.462;2023-02-22T09:57:52;0.50;;;0.50;;
11533;SDS011;5823;50.588;8.462;2023-02-22T10:00:22;0.95;;;0.90;;
11533;SDS011;5823;50.588;8.462;2023-02-22T10:02:55;0.60;;;0.60;;
11533;SDS011;5823;50.588;8.462;2023-02-22T10:05:24;0.82;;;0.75;;
11533;SDS011;5823;50.588;8.462;2023-02-22T10:07:54;0.65;;;0.55;;
11533;SDS011;5823;50.588;8.462;2023-02-22T10:10:23;0.63;;;0.63;;
11533;SDS011;5823;50.588;8.462;2023-02-22T10:12:53;0.50;;;0.50;;
11533;SDS011;5823;50.588;8.462;2023-02-22T10:21:00;0.30;;;0.30;;
11533;SDS011;5823;50.588;8.462;2023-02-22T10:23:31;0.50;;;0.50;;
11533;SDS011;5823;50.588;8.462;2023-02-22T10:26:03;0.65;;;0.55;;
11533;SDS011;5823;50.588;8.462;2023-02-22T10:28:32;0.40;;;0.40;;
11533;SDS011;5823;50.588;8.462;2023-02-22T10:31:01;0.63;;;0.63;;
11533;SDS011;5823;50.588;8.462;2023-02-22T10:33:29;0.55;;;0.52;;
11533;SDS011;5823;50.588;8.462;2023-02-22T10:35:56;0.40;;;0.40;;
11533;SDS011;5823;50.588;8.462;2023-02-22T10:38:23;0.90;;;0.90;;
11533;SDS011;5823;50.588;8.462;2023-02-22T10:40:53;1.13;;;1.02;;
11533;SDS011;5823;50.588;8.462;2023-02-22T10:43:21;0.98;;;0.88;;
11533;SDS011;5823;50.588;8.462;2023-02-22T10:45:50;0.65;;;0.65;;
11533;SDS011;5823;50.588;8.462;2023-02-22T10:48:17;0.68;;;0.68;;
11533;SDS011;5823;50.588;8.462;2023-02-22T10:50:45;0.60;;;0.60;;
11533;SDS011;5823;50.588;8.462;2023-02-22T10:53:12;0.60;;;0.60;;
11533;SDS011;5823;50.588;8.462;2023-02-22T10:58:22;1.00;;;0.90;;
11533;SDS011;5823;50.588;8.462;2023-02-22T11:00:48;0.95;;;0.85;;
11533;SDS011;5823;50.588;8.462;2023-02-22T11:03:16;1.13;;;1.00;;
11533;SDS011;5823;50.588;8.462;2023-02-22T11:05:42;1.17;;;1.08;;
11533;SDS011;5823;50.588;8.462;2023-02-22T11:08:12;0.80;;;0.80;;
11533;SDS011;5823;50.588;8.462;2023-02-22T11:10:39;0.70;;;0.70;;
11533;SDS011;5823;50.588;8.462;2023-02-22T11:13:15;0.50;;;0.50;;
11533;SDS011;5823;50.588;8.462;2023-02-22T11:15:42;0.57;;;0.57;;
11533;SDS011;5823;50.588;8.462;2023-02-22T11:18:15;0.40;;;0.40;;
11533;SDS011;5823;50.588;8.462;2023-02-22T11:20:47;1.20;;;0.95;;
11533;SDS011;5823;50.588;8.462;2023-02-22T11:23:13;0.60;;;0.60;;
11533;SDS011;5823;50.588;8.462;2023-02-22T11:25:47;1.10;;;1.00;;
11533;SDS011;5823;50.588;8.462;2023-02-22T11:28:15;0.95;;;0.90;;
11533;SDS011;5823;50.588;8.462;2023-02-22T11:30:56;0.88;;;0.88;;
11533;SDS011;5823;50.588;8.462;2023-02-22T11:33:22;0.75;;;0.75;;
11533;SDS011;5823;50.588;8.462;2023-02-22T11:35:50;1.05;;;0.98;;
11533;SDS011;5823;50.588;8.462;2023-02-22T11:38:17;0.80;;;0.80;;
11533;SDS011;5823;50.588;8.462;2023-02-22T11:40:45;1.15;;;1.05;;
11533;SDS011;5823;50.588;8.462;2023-02-22T11:43:14;1.13;;;1.10;;
11533;SDS011;5823;50.588;8.462;2023-02-22T11:45:47;0.68;;;0.68;;
11533;SDS011;5823;50.588;8.462;2023-02-22T11:48:21;0.90;;;0.90;;
11533;SDS011;5823;50.588;8.462;2023-02-22T11:50:52;1.25;;;1.10;;
11533;SDS011;5823;50.588;8.462;2023-02-22T11:53:24;1.30;;;1.20;;
11533;SDS011;5823;50.588;8.462;2023-02-22T11:55:54;1.15;;;1.05;;
11533;SDS011;5823;50.588;8.462;2023-02-22T11:58:25;1.10;;;0.85;;
11533;SDS011;5823;50.588;8.462;2023-02-22T12:00:55;0.70;;;0.70;;
11533;SDS011;5823;50.588;8.462;2023-02-22T12:03:42;1.00;;;0.95;;
11533;SDS011;5823;50.588;8.462;2023-02-22T12:06:12;0.77;;;0.77;;
11533;SDS011;5823;50.588;8.462;2023-02-22T12:08:46;0.60;;;0.60;;
11533;SDS011;5823;50.588;8.462;2023-02-22T12:11:16;0.63;;;0.63;;
11533;SDS011;5823;50.588;8.462;2023-02-22T12:13:47;0.65;;;0.63;;
11533;SDS011;5823;50.588;8.462;2023-02-22T12:16:18;1.05;;;0.98;;
11533;SDS011;5823;50.588;8.462;2023-02-22T12:18:52;1.30;;;1.20;;
11533;SDS011;5823;50.588;8.462;2023-02-22T12:21:24;1.83;;;1.73;;
11533;SDS011;5823;50.588;8.462;2023-02-22T12:23:55;1.10;;;1.02;;
11533;SDS011;5823;50.588;8.462;2023-02-22T12:26:24;1.20;;;1.10;;
11533;SDS011;5823;50.588;8.462;2023-02-22T12:28:52;1.20;;;1.10;;
11533;SDS011;5823;50.588;8.462;2023-02-22T12:31:24;1.17;;;0.98;;
11533;SDS011;5823;50.588;8.462;2023-02-22T12:33:57;1.00;;;0.90;;
11533;SDS011;5823;50.588;8.462;2023-02-22T12:36:30;0.77;;;0.77;;
11533;SDS011;5823;50.588;8.462;2023-02-22T12:38:58;0.40;;;0.40;;
11533;SDS011;5823;50.588;8.462;2023-02-22T12:41:30;0.68;;;0.68;;
11533;SDS011;5823;50.588;8.462;2023-02-22T12:43:59;0.70;;;0.70;;
11533;SDS011;5823;50.588;8.462;2023-02-22T12:46:28;1.45;;;1.35;;
11533;SDS011;5823;50.588;8.462;2023-02-22T12:48:58;1.30;;;1.20;;
11533;SDS011;5823;50.588;8.462;2023-02-22T12:51:26;1.60;;;1.30;;
11533;SDS011;5823;50.588;8.462;2023-02-22T12:53:58;1.00;;;0.90;;
11533;SDS011;5823;50.588;8.462;2023-02-22T12:56:28;0.80;;;0.80;;
11533;SDS011;5823;50.588;8.462;2023-02-22T12:58:56;0.70;;;0.70;;
11533;SDS011;5823;50.588;8.462;2023-02-22T13:01:27;0.88;;;0.70;;
11533;SDS011;5823;50.588;8.462;2023-02-22T13:03:56;1.50;;;1.00;;
11533;SDS011;5823;50.588;8.462;2023-02-22T13:06:25;0.98;;;0.90;;
11533;SDS011;5823;50.588;8.462;2023-02-22T13:08:57;0.85;;;0.80;;
11533;SDS011;5823;50.588;8.462;2023-02-22T13:11:31;0.60;;;0.60;;
11533;SDS011;5823;50.588;8.462;2023-02-22T13:14:03;0.80;;;0.80;;
11533;SDS011;5823;50.588;8.462;2023-02-22T13:16:37;0.80;;;0.80;;
11533;SDS011;5823;50.588;8.462;2023-02-22T13:19:07;0.73;;;0.73;;
11533;SDS011;5823;50.588;8.462;2023-02-22T13:21:41;0.70;;;0.70;;
11533;SDS011;5823;50.588;8.462;2023-02-22T13:24:13;0.70;;;0.70;;
11533;SDS011;5823;50.588;8.462;2023-02-22T13:26:42;0.65;;;0.65;;
11533;SDS011;5823;50.588;8.462;2023-02-22T13:29:11;0.90;;;0.90;;
11533;SDS011;5823;50.588;8.462;2023-02-22T13:31:46;1.10;;;0.93;;
11533;SDS011;5823;50.588;8.462;2023-02-22T13:34:23;0.88;;;0.88;;
11533;SDS011;5823;50.588;8.462;2023-02-22T13:36:58;0.40;;;0.40;;
11533;SDS011;5823;50.588;8.462;2023-02-22T13:39:48;0.73;;;0.73;;
11533;SDS011;5823;50.588;8.462;2023-02-22T13:42:23;0.70;;;0.70;;
11533;SDS011;5823;50.588;8.462;2023-02-22T13:44:57;0.50;;;0.50;;
11533;SDS011;5823;50.588;8.462;2023-02-22T13:52:57;0.40;;;0.40;;
11533;SDS011;5823;50.588;8.462;2023-02-22T13:55:24;0.50;;;0.50;;
11533;SDS011;5823;50.588;8.462;2023-02-22T13:57:58;0.55;;;0.55;;
11533;SDS011;5823;50.588;8.462;2023-02-22T14:00:39;0.77;;;0.73;;
11533;SDS011;5823;50.588;8.462;2023-02-22T14:03:06;0.73;;;0.73;;
11533;SDS011;5823;50.588;8.462;2023-02-22T14:05:45;0.50;;;0.50;;
11533;SDS011;5823;50.588;8.462;2023-02-22T14:10:57;0.60;;;0.60;;
11533;SDS011;5823;50.588;8.462;2023-02-22T14:13:25;0.68;;;0.63;;
11533;SDS011;5823;50.588;8.462;2023-02-22T14:18:39;0.88;;;0.88;;
11533;SDS011;5823;50.588;8.462;2023-02-22T14:21:06;1.58;;;1.33;;
11533;SDS011;5823;50.588;8.462;2023-02-22T14:23:34;1.50;;;1.40;;
11533;SDS011;5823;50.588;8.462;2023-02-22T14:26:12;1.58;;;1.48;;
11533;SDS011;5823;50.588;8.462;2023-02-22T14:28:44;0.70;;;0.70;;
11533;SDS011;5823;50.588;8.462;2023-02-22T14:31:14;0.88;;;0.88;;
11533;SDS011;5823;50.588;8.462;2023-02-22T14:33:52;0.70;;;0.70;;
11533;SDS011;5823;50.588;8.462;2023-02-22T14:36:19;0.60;;;0.60;;
11533;SDS011;5823;50.588;8.462;2023-02-22T14:38:47;0.70;;;0.70;;
11533;SDS011;5823;50.588;8.462;2023-02-22T14:41:17;0.77;;;0.77;;
11533;SDS011;5823;50.588;8.462;2023-02-22T14:43:44;0.70;;;0.70;;
11533;SDS011;5823;50.588;8.462;2023-02-22T14:46:12;0.65;;;0.65;;
11533;SDS011;5823;50.588;8.462;2023-02-22T14:48:40;0.70;;;0.70;;
11533;SDS011;5823;50.588;8.462;2023-02-22T14:51:12;0.82;;;0.80;;
11533;SDS011;5823;50.588;8.462;2023-02-22T14:53:41;1.10;;;1.10;;
11533;SDS011;5823;50.588;8.462;2023-02-22T14:56:13;0.95;;;0.95;;
11533;SDS011;5823;50.588;8.462;2023-02-22T14:58:43;0.75;;;0.75;;
11533;SDS011;5823;50.588;8.462;2023-02-22T15:01:15;0.55;;;0.55;;
11533;SDS011;5823;50.588;8.462;2023-02-22T15:03:46;0.70;;;0.70;;
11533;SDS011;5823;50.588;8.462;2023-02-22T15:06:13;1.30;;;1.20;;
11533;SDS011;5823;50.588;8.462;2023-02-22T15:08:40;1.33;;;1.23;;
11533;SDS011;5823;50.588;8.462;2023-02-22T15:11:10;1.50;;;1.40;;
11533;SDS011;5823;50.588;8.462;2023-02-22T15:13:37;1.65;;;1.55;;
11533;SDS011;5823;50.588;8.462;2023-02-22T15:16:15;1.30;;;1.20;;
11533;SDS011;5823;50.588;8.462;2023-02-22T15:18:42;0.90;;;0.90;;
11533;SDS011;5823;50.588;8.462;2023-02-22T15:21:10;0.90;;;0.85;;
11533;SDS011;5823;50.588;8.462;2023-02-22T15:23:40;0.65;;;0.65;;
11533;SDS011;5823;50.588;8.462;2023-02-22T15:26:14;0.73;;;0.73;;
11533;SDS011;5823;50.588;8.462;2023-02-22T15:28:40;0.73;;;0.73;;